THY6CV LQSA-LTFM
Flight info
| Callsign | THY6CV |
|---|---|
| Flight time | 1h 21m |
| Altitude | 39000 |
| Route | MITNO DCT NISVA DCT DEDIN DCT AYTEK |
| Aircraft | B739/M-SDE2E3FGHIRWXY/LB1 |
Departure
| Time | 2026-05-05 13:12 |
|---|---|
| Airport | Sarajevo International Airport (LQSA) |
Arrival
| Time | 2026-05-05 14:33 |
|---|---|
| Airport | İstanbul Airport (LTFM) |
| Time | Latitude | Longitude | Altitude | Speed | Heading |
|---|---|---|---|---|---|
| 2026-05-05 12:50 | 43.82535 | 18.33620 | 1703 ft | 0 kts | 27° |
| 2026-05-05 13:02 | 43.82534 | 18.33619 | 1703 ft | 2 kts | 27° |
| 2026-05-05 13:03 | 43.82516 | 18.33608 | 1704 ft | 3 kts | 18° |
| 2026-05-05 13:03 | 43.82497 | 18.33601 | 1703 ft | 3 kts | 5° |
| 2026-05-05 13:03 | 43.82477 | 18.33602 | 1705 ft | 3 kts | 341° |
| 2026-05-05 13:03 | 43.82463 | 18.33614 | 1708 ft | 3 kts | 302° |
| 2026-05-05 13:04 | 43.82460 | 18.33618 | 1708 ft | 1 kts | 297° |
| 2026-05-05 13:07 | 43.82461 | 18.33616 | 1704 ft | 1 kts | 297° |
| 2026-05-05 13:07 | 43.82475 | 18.33580 | 1707 ft | 8 kts | 297° |
| 2026-05-05 13:07 | 43.82509 | 18.33490 | 1702 ft | 13 kts | 297° |
| 2026-05-05 13:08 | 43.82546 | 18.33389 | 1700 ft | 10 kts | 297° |
| 2026-05-05 13:08 | 43.82545 | 18.33288 | 1698 ft | 12 kts | 247° |
| 2026-05-05 13:08 | 43.82510 | 18.33179 | 1695 ft | 14 kts | 246° |
| 2026-05-05 13:08 | 43.82500 | 18.33042 | 1694 ft | 15 kts | 286° |
| 2026-05-05 13:09 | 43.82552 | 18.32900 | 1690 ft | 18 kts | 297° |
| 2026-05-05 13:09 | 43.82615 | 18.32733 | 1691 ft | 21 kts | 297° |
| 2026-05-05 13:09 | 43.82691 | 18.32531 | 1685 ft | 26 kts | 297° |
| 2026-05-05 13:09 | 43.82782 | 18.32286 | 1676 ft | 31 kts | 297° |
| 2026-05-05 13:10 | 43.82880 | 18.32021 | 1667 ft | 32 kts | 297° |
| 2026-05-05 13:10 | 43.82951 | 18.31835 | 1672 ft | 11 kts | 308° |
| 2026-05-05 13:10 | 43.82983 | 18.31781 | 1667 ft | 3 kts | 277° |
| 2026-05-05 13:10 | 43.82975 | 18.31773 | 1664 ft | 1 kts | 195° |
| 2026-05-05 13:11 | 43.82969 | 18.31783 | 1659 ft | 1 kts | 120° |
| 2026-05-05 13:11 | 43.82964 | 18.31795 | 1667 ft | 2 kts | 118° |
| 2026-05-05 13:11 | 43.82917 | 18.31920 | 1674 ft | 42 kts | 117° |
| 2026-05-05 13:11 | 43.82680 | 18.32558 | 1686 ft | 105 kts | 117° |
| 2026-05-05 13:12 | 43.82262 | 18.33680 | 1707 ft | 155 kts | 118° |
| 2026-05-05 13:12 | 43.81734 | 18.35136 | 1982 ft | 173 kts | 119° |
| 2026-05-05 13:12 | 43.81163 | 18.36642 | 2560 ft | 179 kts | 124° |
| 2026-05-05 13:12 | 43.80537 | 18.38145 | 3334 ft | 184 kts | 121° |
| 2026-05-05 13:13 | 43.79953 | 18.39782 | 3866 ft | 196 kts | 122° |
| 2026-05-05 13:13 | 43.79297 | 18.41496 | 4521 ft | 205 kts | 122° |
| 2026-05-05 13:13 | 43.78644 | 18.43197 | 5329 ft | 199 kts | 122° |
| 2026-05-05 13:13 | 43.78014 | 18.44967 | 5891 ft | 211 kts | 121° |
| 2026-05-05 13:14 | 43.77365 | 18.46754 | 6738 ft | 204 kts | 122° |
| 2026-05-05 13:14 | 43.76724 | 18.48541 | 7157 ft | 208 kts | 116° |
| 2026-05-05 13:14 | 43.76497 | 18.50538 | 7590 ft | 221 kts | 90° |
| 2026-05-05 13:14 | 43.76646 | 18.52674 | 8009 ft | 222 kts | 86° |
| 2026-05-05 13:15 | 43.76805 | 18.54740 | 8599 ft | 216 kts | 88° |
| 2026-05-05 13:15 | 43.76920 | 18.56826 | 9057 ft | 217 kts | 90° |
| 2026-05-05 13:15 | 43.76981 | 18.58943 | 9435 ft | 221 kts | 92° |
| 2026-05-05 13:15 | 43.77013 | 18.61038 | 10011 ft | 217 kts | 92° |
| 2026-05-05 13:16 | 43.77040 | 18.63181 | 10242 ft | 229 kts | 92° |
| 2026-05-05 13:16 | 43.77061 | 18.65465 | 10417 ft | 247 kts | 92° |
| 2026-05-05 13:16 | 43.77080 | 18.67942 | 10543 ft | 268 kts | 93° |
| 2026-05-05 13:16 | 43.77097 | 18.70627 | 10743 ft | 290 kts | 92° |
| 2026-05-05 13:17 | 43.77118 | 18.73522 | 10934 ft | 311 kts | 92° |
| 2026-05-05 13:17 | 43.77137 | 18.76614 | 11108 ft | 332 kts | 91° |
| 2026-05-05 13:17 | 43.77158 | 18.79861 | 11529 ft | 342 kts | 92° |
| 2026-05-05 13:17 | 43.77179 | 18.83184 | 12063 ft | 348 kts | 92° |
| 2026-05-05 13:18 | 43.77196 | 18.86572 | 12618 ft | 355 kts | 91° |
| 2026-05-05 13:18 | 43.77215 | 18.89999 | 13329 ft | 357 kts | 92° |
| 2026-05-05 13:18 | 43.77233 | 18.93458 | 13946 ft | 363 kts | 92° |
| 2026-05-05 13:18 | 43.77248 | 18.96953 | 14570 ft | 365 kts | 91° |
| 2026-05-05 13:19 | 43.77262 | 19.00499 | 15108 ft | 371 kts | 91° |
| 2026-05-05 13:19 | 43.77275 | 19.04074 | 15804 ft | 372 kts | 91° |
| 2026-05-05 13:19 | 43.77287 | 19.07693 | 16318 ft | 380 kts | 91° |
| 2026-05-05 13:19 | 43.77299 | 19.11350 | 17061 ft | 380 kts | 91° |
| 2026-05-05 13:20 | 43.77311 | 19.15049 | 17575 ft | 388 kts | 90° |
| 2026-05-05 13:20 | 43.77321 | 19.18786 | 18233 ft | 389 kts | 91° |
| 2026-05-05 13:20 | 43.77328 | 19.22536 | 18787 ft | 392 kts | 91° |
| 2026-05-05 13:20 | 43.77024 | 19.26311 | 19199 ft | 397 kts | 105° |
| 2026-05-05 13:21 | 43.76292 | 19.29947 | 19759 ft | 399 kts | 107° |
| 2026-05-05 13:21 | 43.75494 | 19.33644 | 20240 ft | 404 kts | 107° |
| 2026-05-05 13:21 | 43.74664 | 19.37427 | 20781 ft | 407 kts | 107° |
| 2026-05-05 13:21 | 43.73855 | 19.41140 | 21335 ft | 409 kts | 107° |
| 2026-05-05 13:22 | 43.73039 | 19.44929 | 21832 ft | 413 kts | 106° |
| 2026-05-05 13:22 | 43.72223 | 19.48755 | 22309 ft | 417 kts | 106° |
| 2026-05-05 13:22 | 43.71406 | 19.52613 | 22864 ft | 419 kts | 106° |
| 2026-05-05 13:22 | 43.70588 | 19.56496 | 23376 ft | 423 kts | 106° |
| 2026-05-05 13:23 | 43.69764 | 19.60409 | 23807 ft | 426 kts | 105° |
| 2026-05-05 13:23 | 43.68930 | 19.64366 | 24223 ft | 430 kts | 105° |
| 2026-05-05 13:23 | 43.68091 | 19.68345 | 24625 ft | 433 kts | 105° |
| 2026-05-05 13:23 | 43.67243 | 19.72354 | 25021 ft | 436 kts | 105° |
| 2026-05-05 13:24 | 43.66389 | 19.76387 | 25418 ft | 439 kts | 105° |
| 2026-05-05 13:24 | 43.65528 | 19.80443 | 25811 ft | 442 kts | 105° |
| 2026-05-05 13:24 | 43.64661 | 19.84522 | 26186 ft | 445 kts | 105° |
| 2026-05-05 13:24 | 43.63783 | 19.88641 | 26561 ft | 448 kts | 105° |
| 2026-05-05 13:25 | 43.62897 | 19.92790 | 26943 ft | 451 kts | 105° |
| 2026-05-05 13:25 | 43.62003 | 19.96965 | 27305 ft | 454 kts | 105° |
| 2026-05-05 13:25 | 43.61113 | 20.01113 | 27649 ft | 457 kts | 105° |
| 2026-05-05 13:25 | 43.60194 | 20.05390 | 28030 ft | 460 kts | 105° |
| 2026-05-05 13:26 | 43.59282 | 20.09626 | 28399 ft | 463 kts | 105° |
| 2026-05-05 13:26 | 43.58363 | 20.13889 | 28763 ft | 465 kts | 105° |
| 2026-05-05 13:26 | 43.57447 | 20.18127 | 29085 ft | 469 kts | 105° |
| 2026-05-05 13:26 | 43.56499 | 20.22501 | 29426 ft | 471 kts | 105° |
| 2026-05-05 13:27 | 43.55557 | 20.26841 | 29775 ft | 474 kts | 105° |
| 2026-05-05 13:27 | 43.54620 | 20.31147 | 30094 ft | 476 kts | 105° |
| 2026-05-05 13:27 | 43.53653 | 20.35582 | 30378 ft | 478 kts | 105° |
| 2026-05-05 13:27 | 43.52703 | 20.39933 | 30628 ft | 480 kts | 105° |
| 2026-05-05 13:28 | 43.51736 | 20.44350 | 30881 ft | 482 kts | 105° |
| 2026-05-05 13:28 | 43.50764 | 20.48782 | 31153 ft | 483 kts | 105° |
| 2026-05-05 13:28 | 43.49789 | 20.53219 | 31429 ft | 485 kts | 106° |
| 2026-05-05 13:28 | 43.48808 | 20.57669 | 31740 ft | 485 kts | 106° |
| 2026-05-05 13:29 | 43.47830 | 20.62103 | 32065 ft | 484 kts | 106° |
| 2026-05-05 13:29 | 43.46848 | 20.66540 | 32473 ft | 482 kts | 106° |
| 2026-05-05 13:29 | 43.45872 | 20.70947 | 32839 ft | 481 kts | 106° |
| 2026-05-05 13:29 | 43.44896 | 20.75341 | 33124 ft | 481 kts | 106° |
| 2026-05-05 13:30 | 43.43916 | 20.79745 | 33401 ft | 481 kts | 106° |
| 2026-05-05 13:30 | 43.42935 | 20.84143 | 33726 ft | 480 kts | 106° |
| 2026-05-05 13:30 | 43.41954 | 20.88532 | 34058 ft | 479 kts | 106° |
| 2026-05-05 13:30 | 43.40987 | 20.92850 | 34302 ft | 478 kts | 106° |
| 2026-05-05 13:31 | 43.39994 | 20.97274 | 34521 ft | 479 kts | 106° |
| 2026-05-05 13:31 | 43.39025 | 21.01587 | 34740 ft | 479 kts | 106° |
| 2026-05-05 13:31 | 43.38040 | 21.05959 | 35002 ft | 478 kts | 106° |
| 2026-05-05 13:31 | 43.37058 | 21.10309 | 35280 ft | 476 kts | 106° |
| 2026-05-05 13:32 | 43.36075 | 21.14657 | 35518 ft | 476 kts | 106° |
| 2026-05-05 13:32 | 43.35090 | 21.19003 | 35712 ft | 477 kts | 106° |
| 2026-05-05 13:32 | 43.34106 | 21.23341 | 35940 ft | 476 kts | 105° |
| 2026-05-05 13:32 | 43.33120 | 21.27674 | 36180 ft | 475 kts | 105° |
| 2026-05-05 13:33 | 43.32131 | 21.32013 | 36397 ft | 475 kts | 105° |
| 2026-05-05 13:33 | 43.31143 | 21.36335 | 36604 ft | 475 kts | 105° |
| 2026-05-05 13:33 | 43.30152 | 21.40665 | 36768 ft | 475 kts | 105° |
| 2026-05-05 13:33 | 43.29159 | 21.44996 | 36975 ft | 475 kts | 105° |
| 2026-05-05 13:34 | 43.28167 | 21.49314 | 37183 ft | 474 kts | 105° |
| 2026-05-05 13:34 | 43.27173 | 21.53632 | 37376 ft | 473 kts | 105° |
| 2026-05-05 13:34 | 43.26179 | 21.57939 | 37564 ft | 473 kts | 105° |
| 2026-05-05 13:34 | 43.25186 | 21.62237 | 37758 ft | 472 kts | 105° |
| 2026-05-05 13:35 | 43.24193 | 21.66526 | 37949 ft | 472 kts | 105° |
| 2026-05-05 13:35 | 43.23197 | 21.70819 | 38022 ft | 474 kts | 105° |
| 2026-05-05 13:35 | 43.21184 | 21.79473 | 38021 ft | 477 kts | 105° |
| 2026-05-05 13:36 | 43.19180 | 21.88048 | 38020 ft | 474 kts | 105° |
| 2026-05-05 13:36 | 43.17165 | 21.96638 | 38050 ft | 475 kts | 105° |
| 2026-05-05 13:37 | 43.16151 | 22.00954 | 38182 ft | 476 kts | 105° |
| 2026-05-05 13:37 | 43.15137 | 22.05258 | 38385 ft | 474 kts | 105° |
| 2026-05-05 13:37 | 43.14124 | 22.09546 | 38591 ft | 473 kts | 105° |
| 2026-05-05 13:37 | 43.13109 | 22.13836 | 38706 ft | 474 kts | 105° |
| 2026-05-05 13:38 | 43.11073 | 22.22418 | 38912 ft | 472 kts | 105° |
| 2026-05-05 13:38 | 43.09050 | 22.30913 | 39013 ft | 470 kts | 105° |
| 2026-05-05 13:39 | 43.07014 | 22.39435 | 39026 ft | 472 kts | 105° |
| 2026-05-05 13:39 | 43.04980 | 22.47918 | 39025 ft | 475 kts | 105° |
| 2026-05-05 13:40 | 43.02907 | 22.56525 | 39023 ft | 477 kts | 106° |
| 2026-05-05 13:40 | 43.00822 | 22.65152 | 39018 ft | 479 kts | 106° |
| 2026-05-05 13:41 | 42.98740 | 22.73739 | 39022 ft | 479 kts | 106° |
| 2026-05-05 13:41 | 42.96598 | 22.82348 | 39016 ft | 478 kts | 108° |
| 2026-05-05 13:42 | 42.94178 | 22.90796 | 39016 ft | 477 kts | 110° |
| 2026-05-05 13:42 | 42.91692 | 22.99159 | 39013 ft | 474 kts | 109° |
| 2026-05-05 13:43 | 42.89236 | 23.07502 | 39017 ft | 472 kts | 109° |
| 2026-05-05 13:43 | 42.86813 | 23.15793 | 39033 ft | 470 kts | 109° |
| 2026-05-05 13:44 | 42.84399 | 23.24053 | 39035 ft | 468 kts | 109° |
| 2026-05-05 13:44 | 42.81983 | 23.32289 | 39050 ft | 467 kts | 109° |
| 2026-05-05 13:45 | 42.79582 | 23.40448 | 39054 ft | 467 kts | 109° |
| 2026-05-05 13:45 | 42.77154 | 23.48668 | 39054 ft | 468 kts | 109° |
| 2026-05-05 13:46 | 42.74717 | 23.56890 | 39050 ft | 469 kts | 110° |
| 2026-05-05 13:46 | 42.72266 | 23.65135 | 39041 ft | 470 kts | 110° |
| 2026-05-05 13:47 | 42.70225 | 23.71981 | 39046 ft | 471 kts | 110° |
| 2026-05-05 13:47 | 42.67755 | 23.80240 | 39036 ft | 472 kts | 110° |
| 2026-05-05 13:48 | 42.65276 | 23.88508 | 39024 ft | 473 kts | 110° |
| 2026-05-05 13:48 | 42.62788 | 23.96776 | 39028 ft | 473 kts | 110° |
| 2026-05-05 13:49 | 42.60291 | 24.05052 | 39034 ft | 473 kts | 110° |
| 2026-05-05 13:49 | 42.57727 | 24.13285 | 39030 ft | 473 kts | 112° |
| 2026-05-05 13:50 | 42.55006 | 24.21415 | 39022 ft | 472 kts | 112° |
| 2026-05-05 13:50 | 42.52273 | 24.29510 | 39022 ft | 471 kts | 112° |
| 2026-05-05 13:51 | 42.49563 | 24.37585 | 39019 ft | 470 kts | 112° |
| 2026-05-05 13:51 | 42.46878 | 24.45610 | 39013 ft | 470 kts | 112° |
| 2026-05-05 13:52 | 42.44176 | 24.53668 | 39015 ft | 470 kts | 112° |
| 2026-05-05 13:52 | 42.41467 | 24.61724 | 39014 ft | 470 kts | 112° |
| 2026-05-05 13:53 | 42.38750 | 24.69777 | 39008 ft | 470 kts | 112° |
| 2026-05-05 13:53 | 42.36022 | 24.77840 | 39013 ft | 471 kts | 112° |
| 2026-05-05 13:54 | 42.33303 | 24.85850 | 39016 ft | 472 kts | 112° |
| 2026-05-05 13:54 | 42.30557 | 24.93916 | 39019 ft | 473 kts | 112° |
| 2026-05-05 13:55 | 42.27796 | 25.02002 | 39015 ft | 474 kts | 112° |
| 2026-05-05 13:55 | 42.25026 | 25.10093 | 39012 ft | 475 kts | 112° |
| 2026-05-05 13:56 | 42.22246 | 25.18188 | 39014 ft | 475 kts | 113° |
| 2026-05-05 13:56 | 42.19458 | 25.26282 | 39013 ft | 475 kts | 113° |
| 2026-05-05 13:57 | 42.16689 | 25.34300 | 39010 ft | 474 kts | 113° |
| 2026-05-05 13:57 | 42.13901 | 25.42347 | 39013 ft | 474 kts | 113° |
| 2026-05-05 13:58 | 42.11110 | 25.50380 | 39015 ft | 473 kts | 113° |
| 2026-05-05 13:58 | 42.08319 | 25.58388 | 39010 ft | 472 kts | 113° |
| 2026-05-05 13:59 | 42.04137 | 25.70349 | 39014 ft | 470 kts | 113° |
| 2026-05-05 14:00 | 41.99952 | 25.82267 | 39023 ft | 469 kts | 113° |
| 2026-05-05 14:00 | 41.97159 | 25.90194 | 39017 ft | 469 kts | 113° |
| 2026-05-05 14:01 | 41.94355 | 25.98127 | 39027 ft | 469 kts | 113° |
| 2026-05-05 14:01 | 41.91566 | 26.05999 | 39021 ft | 470 kts | 113° |
| 2026-05-05 14:02 | 41.88750 | 26.13921 | 39029 ft | 470 kts | 113° |
| 2026-05-05 14:02 | 41.85923 | 26.21857 | 39024 ft | 471 kts | 113° |
| 2026-05-05 14:03 | 41.83091 | 26.29785 | 39029 ft | 472 kts | 114° |
| 2026-05-05 14:03 | 41.80283 | 26.37748 | 39028 ft | 472 kts | 110° |
| 2026-05-05 14:04 | 41.78045 | 26.45987 | 39028 ft | 471 kts | 106° |
| 2026-05-05 14:04 | 41.75867 | 26.54265 | 39020 ft | 472 kts | 108° |
| 2026-05-05 14:05 | 41.72868 | 26.62063 | 39052 ft | 473 kts | 123° |
| 2026-05-05 14:05 | 41.70984 | 26.65639 | 38859 ft | 467 kts | 124° |
| 2026-05-05 14:05 | 41.69146 | 26.69147 | 38302 ft | 465 kts | 123° |
| 2026-05-05 14:06 | 41.67332 | 26.72731 | 37499 ft | 467 kts | 122° |
| 2026-05-05 14:06 | 41.65486 | 26.76325 | 36608 ft | 472 kts | 128° |
| 2026-05-05 14:06 | 41.63030 | 26.79279 | 35702 ft | 480 kts | 147° |
| 2026-05-05 14:06 | 41.60012 | 26.81209 | 34870 ft | 484 kts | 164° |
| 2026-05-05 14:07 | 41.56708 | 26.82084 | 34101 ft | 485 kts | 172° |
| 2026-05-05 14:07 | 41.53405 | 26.83033 | 33250 ft | 486 kts | 158° |
| 2026-05-05 14:07 | 41.50471 | 26.85175 | 32640 ft | 478 kts | 139° |
| 2026-05-05 14:07 | 41.48180 | 26.88283 | 32174 ft | 465 kts | 123° |
| 2026-05-05 14:08 | 41.46562 | 26.91950 | 31675 ft | 454 kts | 109° |
| 2026-05-05 14:08 | 41.45648 | 26.95920 | 31094 ft | 443 kts | 95° |
| 2026-05-05 14:08 | 41.45293 | 26.99966 | 30554 ft | 437 kts | 91° |
| 2026-05-05 14:08 | 41.45016 | 27.03996 | 30014 ft | 434 kts | 91° |
| 2026-05-05 14:09 | 41.44709 | 27.07982 | 29413 ft | 431 kts | 92° |
| 2026-05-05 14:09 | 41.44370 | 27.11932 | 28849 ft | 427 kts | 92° |
| 2026-05-05 14:09 | 41.44022 | 27.15847 | 28320 ft | 423 kts | 92° |
| 2026-05-05 14:09 | 41.43674 | 27.19719 | 27789 ft | 419 kts | 92° |
| 2026-05-05 14:10 | 41.43330 | 27.23556 | 27255 ft | 415 kts | 92° |
| 2026-05-05 14:10 | 41.42989 | 27.27343 | 26667 ft | 407 kts | 92° |
| 2026-05-05 14:10 | 41.42660 | 27.31018 | 25898 ft | 403 kts | 93° |
| 2026-05-05 14:10 | 41.42329 | 27.34723 | 25099 ft | 401 kts | 93° |
| 2026-05-05 14:11 | 41.41999 | 27.38396 | 24382 ft | 397 kts | 93° |
| 2026-05-05 14:11 | 41.41670 | 27.42010 | 23975 ft | 385 kts | 93° |
| 2026-05-05 14:11 | 41.41354 | 27.45467 | 23785 ft | 368 kts | 93° |
| 2026-05-05 14:11 | 41.41046 | 27.48794 | 23509 ft | 356 kts | 93° |
| 2026-05-05 14:12 | 41.40741 | 27.52042 | 23236 ft | 352 kts | 94° |
| 2026-05-05 14:12 | 41.40202 | 27.55229 | 22811 ft | 354 kts | 106° |
| 2026-05-05 14:12 | 41.39170 | 27.58219 | 22205 ft | 356 kts | 118° |
| 2026-05-05 14:12 | 41.37681 | 27.60875 | 21494 ft | 363 kts | 130° |
| 2026-05-05 14:13 | 41.35769 | 27.63096 | 20990 ft | 367 kts | 142° |
| 2026-05-05 14:13 | 41.33630 | 27.64933 | 20648 ft | 364 kts | 148° |
| 2026-05-05 14:13 | 41.31406 | 27.66529 | 20276 ft | 362 kts | 151° |
| 2026-05-05 14:13 | 41.29160 | 27.68040 | 19878 ft | 361 kts | 151° |
| 2026-05-05 14:14 | 41.26907 | 27.69537 | 19485 ft | 360 kts | 151° |
| 2026-05-05 14:14 | 41.24677 | 27.71030 | 19105 ft | 358 kts | 151° |
| 2026-05-05 14:14 | 41.22456 | 27.72532 | 18735 ft | 357 kts | 150° |
| 2026-05-05 14:14 | 41.20241 | 27.74041 | 18357 ft | 356 kts | 150° |
| 2026-05-05 14:15 | 41.18046 | 27.75545 | 17945 ft | 354 kts | 150° |
| 2026-05-05 14:15 | 41.15897 | 27.77020 | 17587 ft | 351 kts | 150° |
| 2026-05-05 14:15 | 41.13735 | 27.78506 | 17227 ft | 348 kts | 150° |
| 2026-05-05 14:15 | 41.11596 | 27.79975 | 16860 ft | 346 kts | 150° |
| 2026-05-05 14:16 | 41.09464 | 27.81439 | 16482 ft | 344 kts | 150° |
| 2026-05-05 14:16 | 41.07348 | 27.82892 | 16127 ft | 342 kts | 150° |
| 2026-05-05 14:16 | 41.05239 | 27.84338 | 15765 ft | 340 kts | 150° |
| 2026-05-05 14:16 | 41.03147 | 27.85772 | 15422 ft | 337 kts | 150° |
| 2026-05-05 14:17 | 41.01084 | 27.87185 | 14997 ft | 332 kts | 150° |
| 2026-05-05 14:17 | 40.99039 | 27.88584 | 14420 ft | 331 kts | 150° |
| 2026-05-05 14:17 | 40.96993 | 27.89982 | 13895 ft | 329 kts | 150° |
| 2026-05-05 14:17 | 40.95072 | 27.91574 | 13313 ft | 322 kts | 133° |
| 2026-05-05 14:18 | 40.93807 | 27.93900 | 12892 ft | 304 kts | 108° |
| 2026-05-05 14:18 | 40.93258 | 27.96507 | 12516 ft | 288 kts | 90° |
| 2026-05-05 14:18 | 40.93325 | 27.99099 | 12012 ft | 279 kts | 77° |
| 2026-05-05 14:18 | 40.93606 | 28.01622 | 11506 ft | 277 kts | 76° |
| 2026-05-05 14:19 | 40.93896 | 28.04134 | 11024 ft | 275 kts | 76° |
| 2026-05-05 14:19 | 40.94172 | 28.06597 | 10567 ft | 273 kts | 76° |
| 2026-05-05 14:19 | 40.94443 | 28.09070 | 10109 ft | 270 kts | 76° |
| 2026-05-05 14:19 | 40.94708 | 28.11531 | 9607 ft | 269 kts | 76° |
| 2026-05-05 14:20 | 40.94970 | 28.13972 | 9093 ft | 268 kts | 76° |
| 2026-05-05 14:20 | 40.95230 | 28.16412 | 8572 ft | 267 kts | 76° |
| 2026-05-05 14:20 | 40.95487 | 28.18841 | 8073 ft | 266 kts | 76° |
| 2026-05-05 14:20 | 40.95743 | 28.21260 | 7591 ft | 265 kts | 76° |
| 2026-05-05 14:21 | 40.95998 | 28.23676 | 7106 ft | 264 kts | 77° |
| 2026-05-05 14:21 | 40.96250 | 28.26075 | 6653 ft | 263 kts | 77° |
| 2026-05-05 14:21 | 40.96500 | 28.28462 | 6197 ft | 261 kts | 77° |
| 2026-05-05 14:21 | 40.96750 | 28.30834 | 5865 ft | 260 kts | 77° |
| 2026-05-05 14:22 | 40.96997 | 28.33196 | 5587 ft | 257 kts | 77° |
| 2026-05-05 14:22 | 40.97240 | 28.35527 | 5320 ft | 255 kts | 77° |
| 2026-05-05 14:22 | 40.97480 | 28.37838 | 5062 ft | 252 kts | 78° |
| 2026-05-05 14:22 | 40.97629 | 28.40104 | 4830 ft | 250 kts | 85° |
| 2026-05-05 14:23 | 40.97617 | 28.42414 | 4610 ft | 246 kts | 87° |
| 2026-05-05 14:23 | 40.97591 | 28.44653 | 4393 ft | 241 kts | 87° |
| 2026-05-05 14:23 | 40.97573 | 28.46826 | 4183 ft | 236 kts | 87° |
| 2026-05-05 14:23 | 40.97559 | 28.49005 | 3985 ft | 232 kts | 89° |
| 2026-05-05 14:24 | 40.97343 | 28.51096 | 3786 ft | 232 kts | 99° |
| 2026-05-05 14:24 | 40.96990 | 28.53177 | 3590 ft | 232 kts | 100° |
| 2026-05-05 14:24 | 40.96635 | 28.55253 | 3389 ft | 230 kts | 100° |
| 2026-05-05 14:24 | 40.96291 | 28.57317 | 3183 ft | 229 kts | 100° |
| 2026-05-05 14:25 | 40.95959 | 28.59347 | 3027 ft | 222 kts | 98° |
| 2026-05-05 14:25 | 40.95873 | 28.61346 | 3004 ft | 215 kts | 87° |
| 2026-05-05 14:25 | 40.95917 | 28.63315 | 3000 ft | 214 kts | 86° |
| 2026-05-05 14:25 | 40.95961 | 28.65289 | 2997 ft | 216 kts | 86° |
| 2026-05-05 14:26 | 40.96120 | 28.67276 | 2998 ft | 218 kts | 68° |
| 2026-05-05 14:26 | 40.96983 | 28.68872 | 3011 ft | 214 kts | 36° |
| 2026-05-05 14:26 | 40.98238 | 28.69934 | 2997 ft | 216 kts | 28° |
| 2026-05-05 14:26 | 40.99574 | 28.70840 | 2996 ft | 216 kts | 16° |
| 2026-05-05 14:27 | 41.01033 | 28.71097 | 3014 ft | 205 kts | 2° |
| 2026-05-05 14:27 | 41.02410 | 28.71162 | 2991 ft | 190 kts | 1° |
| 2026-05-05 14:27 | 41.03667 | 28.71174 | 2974 ft | 171 kts | 359° |
| 2026-05-05 14:27 | 41.04832 | 28.71164 | 2995 ft | 166 kts | 359° |
| 2026-05-05 14:28 | 41.05968 | 28.71147 | 3000 ft | 165 kts | 359° |
| 2026-05-05 14:28 | 41.07115 | 28.71126 | 2989 ft | 164 kts | 359° |
| 2026-05-05 14:28 | 41.08244 | 28.71105 | 2975 ft | 160 kts | 359° |
| 2026-05-05 14:28 | 41.09354 | 28.71080 | 2998 ft | 161 kts | 359° |
| 2026-05-05 14:29 | 41.10487 | 28.71059 | 2998 ft | 163 kts | 359° |
| 2026-05-05 14:29 | 41.11618 | 28.71037 | 2980 ft | 162 kts | 359° |
| 2026-05-05 14:29 | 41.12732 | 28.71015 | 2983 ft | 159 kts | 359° |
| 2026-05-05 14:29 | 41.13855 | 28.70993 | 2856 ft | 163 kts | 359° |
| 2026-05-05 14:30 | 41.14989 | 28.70970 | 2635 ft | 162 kts | 359° |
| 2026-05-05 14:30 | 41.16116 | 28.70947 | 2426 ft | 161 kts | 359° |
| 2026-05-05 14:30 | 41.17226 | 28.70925 | 2200 ft | 158 kts | 360° |
| 2026-05-05 14:30 | 41.18301 | 28.70904 | 1995 ft | 152 kts | 359° |
| 2026-05-05 14:31 | 41.19336 | 28.70884 | 1806 ft | 144 kts | 359° |
| 2026-05-05 14:31 | 41.20333 | 28.70864 | 1595 ft | 143 kts | 359° |
| 2026-05-05 14:31 | 41.21313 | 28.70845 | 1427 ft | 139 kts | 359° |
| 2026-05-05 14:31 | 41.22273 | 28.70832 | 1194 ft | 137 kts | 359° |
| 2026-05-05 14:32 | 41.23207 | 28.70810 | 1031 ft | 131 kts | 358° |
| 2026-05-05 14:32 | 41.24142 | 28.70781 | 853 ft | 137 kts | 0° |
| 2026-05-05 14:32 | 41.25090 | 28.70770 | 678 ft | 139 kts | 359° |
| 2026-05-05 14:32 | 41.26053 | 28.70747 | 488 ft | 137 kts | 359° |
| 2026-05-05 14:33 | 41.26996 | 28.70731 | 325 ft | 131 kts | 359° |
| 2026-05-05 14:33 | 41.27798 | 28.70716 | 300 ft | 94 kts | 359° |
| 2026-05-05 14:33 | 41.28304 | 28.70704 | 280 ft | 51 kts | 359° |
| 2026-05-05 14:33 | 41.28580 | 28.70760 | 270 ft | 38 kts | 26° |
| 2026-05-05 14:34 | 41.28673 | 28.70826 | 278 ft | 0 kts | 30° |
| 2026-05-05 14:36 | 41.28692 | 28.70840 | 281 ft | 7 kts | 31° |
| 2026-05-05 14:36 | 41.28713 | 28.70901 | 298 ft | 6 kts | 85° |
| 2026-05-05 14:36 | 41.28743 | 28.70939 | 297 ft | 7 kts | 15° |
| 2026-05-05 14:37 | 41.28806 | 28.70948 | 297 ft | 12 kts | 4° |
| 2026-05-05 14:37 | 41.28896 | 28.70990 | 293 ft | 16 kts | 29° |
| 2026-05-05 14:37 | 41.28986 | 28.71057 | 278 ft | 12 kts | 28° |
| 2026-05-05 14:37 | 41.29037 | 28.71124 | 265 ft | 12 kts | 87° |
| 2026-05-05 14:38 | 41.28972 | 28.71168 | 264 ft | 12 kts | 180° |
| 2026-05-05 14:38 | 41.28892 | 28.71169 | 267 ft | 11 kts | 179° |
| 2026-05-05 14:38 | 41.28814 | 28.71170 | 269 ft | 11 kts | 180° |
| 2026-05-05 14:38 | 41.28738 | 28.71171 | 272 ft | 12 kts | 179° |
| 2026-05-05 14:39 | 41.28654 | 28.71173 | 275 ft | 13 kts | 179° |
| 2026-05-05 14:39 | 41.28562 | 28.71175 | 279 ft | 14 kts | 179° |
| 2026-05-05 14:39 | 41.28462 | 28.71177 | 285 ft | 16 kts | 179° |
| 2026-05-05 14:39 | 41.28333 | 28.71180 | 289 ft | 20 kts | 179° |
| 2026-05-05 14:40 | 41.28184 | 28.71183 | 291 ft | 22 kts | 179° |
| 2026-05-05 14:40 | 41.28025 | 28.71187 | 296 ft | 24 kts | 178° |
| 2026-05-05 14:40 | 41.27855 | 28.71190 | 303 ft | 25 kts | 180° |
| 2026-05-05 14:40 | 41.27677 | 28.71193 | 307 ft | 26 kts | 179° |
| 2026-05-05 14:41 | 41.27500 | 28.71196 | 309 ft | 25 kts | 179° |
| 2026-05-05 14:41 | 41.27335 | 28.71199 | 314 ft | 24 kts | 179° |
| 2026-05-05 14:41 | 41.27163 | 28.71203 | 317 ft | 26 kts | 179° |
| 2026-05-05 14:41 | 41.26977 | 28.71206 | 321 ft | 28 kts | 179° |
| 2026-05-05 14:42 | 41.26808 | 28.71209 | 325 ft | 16 kts | 179° |
| 2026-05-05 14:42 | 41.26714 | 28.71221 | 327 ft | 11 kts | 150° |
| 2026-05-05 14:42 | 41.26700 | 28.71331 | 327 ft | 15 kts | 89° |
| 2026-05-05 14:42 | 41.26702 | 28.71500 | 322 ft | 22 kts | 89° |
| 2026-05-05 14:43 | 41.26704 | 28.71719 | 316 ft | 25 kts | 89° |
| 2026-05-05 14:43 | 41.26707 | 28.71932 | 310 ft | 17 kts | 89° |
| 2026-05-05 14:43 | 41.26707 | 28.72016 | 309 ft | 5 kts | 89° |
| 2026-05-05 14:43 | 41.26708 | 28.72060 | 309 ft | 5 kts | 89° |
| 2026-05-05 14:44 | 41.26708 | 28.72112 | 310 ft | 6 kts | 89° |
| 2026-05-05 14:44 | 41.26709 | 28.72178 | 310 ft | 8 kts | 89° |
| 2026-05-05 14:44 | 41.26710 | 28.72251 | 311 ft | 8 kts | 89° |
| 2026-05-05 14:44 | 41.26710 | 28.72326 | 313 ft | 9 kts | 89° |
| 2026-05-05 14:45 | 41.26711 | 28.72407 | 318 ft | 10 kts | 89° |
| 2026-05-05 14:45 | 41.26712 | 28.72500 | 324 ft | 12 kts | 89° |
| 2026-05-05 14:45 | 41.26714 | 28.72625 | 322 ft | 12 kts | 89° |
| 2026-05-05 14:45 | 41.26715 | 28.72727 | 324 ft | 10 kts | 89° |
| 2026-05-05 14:46 | 41.26716 | 28.72839 | 321 ft | 9 kts | 89° |
| 2026-05-05 14:46 | 41.26717 | 28.72930 | 314 ft | 7 kts | 89° |
| 2026-05-05 14:46 | 41.26717 | 28.72989 | 312 ft | 5 kts | 89° |
| 2026-05-05 14:46 | 41.26718 | 28.73055 | 311 ft | 9 kts | 89° |
| 2026-05-05 14:47 | 41.26718 | 28.73080 | 310 ft | 3 kts | 89° |
| 2026-05-05 14:47 | 41.26719 | 28.73132 | 309 ft | 8 kts | 89° |
| 2026-05-05 14:47 | 41.26719 | 28.73208 | 312 ft | 9 kts | 89° |
| 2026-05-05 14:47 | 41.26720 | 28.73287 | 313 ft | 7 kts | 89° |
| 2026-05-05 14:48 | 41.26712 | 28.73349 | 311 ft | 8 kts | 114° |
| 2026-05-05 14:48 | 41.26703 | 28.73416 | 312 ft | 6 kts | 91° |
| 2026-05-05 14:48 | 41.26703 | 28.73463 | 312 ft | 3 kts | 89° |
| 2026-05-05 14:48 | 41.26703 | 28.73467 | 312 ft | 0 kts | 89° |